Time,TemperatureF,DewpointF,PressureIn,WindDirection,WindDirectionDegrees,WindSpeedMPH,WindSpeedGustMPH,Humidity,HourlyPrecipIn,Conditions,Clouds,dailyrainin,SoftwareType,DateUTC
2013-11-14 00:03:00,28.0,19.0,30.38,North,0,0.0,-999.0,68,-99.99,,,-99.99,,2013-11-14 05:03:00,
2013-11-14 00:23:00,28.0,19.0,30.38,North,0,0.0,-999.0,68,-99.99,,,-99.99,,2013-11-14 05:23:00,
2013-11-14 00:44:00,28.0,18.0,30.37,North,0,0.0,-999.0,63,-99.99,,,-99.99,,2013-11-14 05:44:00,
2013-11-14 01:22:00,27.0,18.0,30.35,North,0,0.0,-999.0,68,-99.99,,,-99.99,,2013-11-14 06:22:00,
2013-11-14 01:42:00,27.0,18.0,30.35,North,0,0.0,-999.0,68,-99.99,,,-99.99,,2013-11-14 06:42:00,
2013-11-14 02:22:00,27.0,18.0,30.34,North,0,0.0,-999.0,68,-99.99,,,-99.99,,2013-11-14 07:22:00,
2013-11-14 02:42:00,27.0,19.0,30.35,North,0,0.0,-999.0,73,-99.99,,,-99.99,,2013-11-14 07:42:00,
2013-11-14 03:22:00,27.0,18.0,30.33,North,0,0.0,-999.0,68,-99.99,,,-99.99,,2013-11-14 08:22:00,
2013-11-14 03:42:00,27.0,19.0,30.33,North,0,0.0,-999.0,73,-99.99,,,-99.99,,2013-11-14 08:42:00,
2013-11-14 04:22:00,27.0,19.0,30.33,North,0,0.0,-999.0,73,-99.99,,,-99.99,,2013-11-14 09:22:00,
2013-11-14 04:43:00,27.0,19.0,30.33,North,0,0.0,-999.0,73,-99.99,,,-99.99,,2013-11-14 09:43:00,
2013-11-14 05:23:00,25.0,18.0,30.32,North,0,0.0,-999.0,73,-99.99,,,-99.99,,2013-11-14 10:23:00,
2013-11-14 05:42:00,25.0,18.0,30.32,North,0,0.0,-999.0,73,-99.99,,,-99.99,,2013-11-14 10:42:00,
2013-11-14 06:22:00,27.0,19.0,30.31,North,0,0.0,-999.0,73,-99.99,,,-99.99,,2013-11-14 11:22:00,
2013-11-14 06:42:00,27.0,19.0,30.32,North,0,0.0,-999.0,73,-99.99,,,-99.99,,2013-11-14 11:42:00,
2013-11-14 06:52:00,27.0,21.0,30.32,North,0,0.0,-999.0,79,-99.99,,,-99.99,,2013-11-14 11:52:00,
2013-11-14 07:02:00,27.0,21.0,30.32,North,0,0.0,-999.0,79,-99.99,,,-99.99,,2013-11-14 12:02:00,
2013-11-14 07:22:00,27.0,19.0,30.33,North,0,0.0,-999.0,73,-99.99,,,-99.99,,2013-11-14 12:22:00,
2013-11-14 07:42:00,27.0,19.0,30.33,North,0,0.0,-999.0,73,-99.99,,,-99.99,,2013-11-14 12:42:00,
2013-11-14 08:22:00,32.0,23.0,30.34,North,0,0.0,-999.0,69,-99.99,,,-99.99,,2013-11-14 13:22:00,
2013-11-14 08:42:00,34.0,23.0,30.35,WNW,290,6.0,-999.0,64,-99.99,,,-99.99,,2013-11-14 13:42:00,
2013-11-14 09:22:00,36.0,21.0,30.34,North,0,0.0,-999.0,55,-99.99,,,-99.99,,2013-11-14 14:22:00,
2013-11-14 09:42:00,37.0,19.0,30.35,North,0,0.0,-999.0,47,-99.99,,,-99.99,,2013-11-14 14:42:00,
2013-11-14 10:22:00,43.0,19.0,30.34,North,0,0.0,-999.0,38,-99.99,,,-99.99,,2013-11-14 15:22:00,
2013-11-14 10:43:00,45.0,19.0,30.34,North,0,0.0,-999.0,36,-99.99,,,-99.99,,2013-11-14 15:43:00,
2013-11-14 11:23:00,46.0,19.0,30.32,North,0,0.0,-999.0,33,-99.99,,,-99.99,,2013-11-14 16:23:00,
2013-11-14 11:42:00,48.0,19.0,30.31,North,0,0.0,-999.0,31,-99.99,,,-99.99,,2013-11-14 16:42:00,
2013-11-14 12:23:00,52.0,19.0,30.29,North,0,0.0,-999.0,27,-99.99,,,-99.99,,2013-11-14 17:23:00,
2013-11-14 12:42:00,54.0,19.0,30.28,North,0,0.0,-999.0,25,-99.99,,,-99.99,,2013-11-14 17:42:00,
2013-11-14 13:22:00,54.0,25.0,30.27,North,0,0.0,-999.0,32,-99.99,,,-99.99,,2013-11-14 18:22:00,
2013-11-14 13:42:00,55.0,25.0,30.26,North,0,0.0,-999.0,30,-99.99,,,-99.99,,2013-11-14 18:42:00,
2013-11-14 14:52:00,55.0,25.0,30.25,SE,140,9.0,-999.0,30,-99.99,,,-99.99,,2013-11-14 19:52:00,
2013-11-14 15:02:00,55.0,25.0,30.25,SE,140,9.0,-999.0,30,-99.99,,,-99.99,,2013-11-14 20:02:00,
2013-11-14 15:22:00,55.0,25.0,30.25,South,180,6.0,-999.0,30,-99.99,,,-99.99,,2013-11-14 20:22:00,
2013-11-14 15:42:00,54.0,27.0,30.24,SSW,210,5.0,-999.0,34,-99.99,,,-99.99,,2013-11-14 20:42:00,
2013-11-14 16:22:00,54.0,27.0,30.24,North,0,0.0,-999.0,34,-99.99,,,-99.99,,2013-11-14 21:22:00,
2013-11-14 16:43:00,54.0,27.0,30.24,North,0,0.0,-999.0,34,-99.99,,,-99.99,,2013-11-14 21:43:00,
2013-11-14 16:53:00,54.0,27.0,30.24,North,0,0.0,-999.0,34,-99.99,,,-99.99,,2013-11-14 21:53:00,
2013-11-14 17:03:00,54.0,27.0,30.24,North,0,0.0,-999.0,34,-99.99,,,-99.99,,2013-11-14 22:03:00,
2013-11-14 17:23:00,52.0,27.0,30.24,North,0,0.0,-999.0,37,-99.99,,,-99.99,,2013-11-14 22:23:00,
2013-11-14 17:43:00,52.0,27.0,30.25,North,0,0.0,-999.0,37,-99.99,,,-99.99,,2013-11-14 22:43:00,
2013-11-14 18:22:00,48.0,21.0,30.26,North,0,0.0,-999.0,34,-99.99,,,-99.99,,2013-11-14 23:22:00,
2013-11-14 18:43:00,46.0,28.0,30.26,North,0,0.0,-999.0,49,-99.99,,,-99.99,,2013-11-14 23:43:00,
2013-11-14 19:22:00,39.0,27.0,30.25,North,0,0.0,-999.0,60,-99.99,,,-99.99,,2013-11-15 00:22:00,
2013-11-14 19:42:00,39.0,27.0,30.25,North,0,0.0,-999.0,60,-99.99,,,-99.99,,2013-11-15 00:42:00,
2013-11-14 20:22:00,37.0,27.0,30.24,North,0,0.0,-999.0,64,-99.99,,,-99.99,,2013-11-15 01:22:00,
2013-11-14 20:52:00,36.0,27.0,30.23,North,0,0.0,-999.0,69,-99.99,,,-99.99,,2013-11-15 01:52:00,
2013-11-14 21:02:00,36.0,27.0,30.23,North,0,0.0,-999.0,69,-99.99,,,-99.99,,2013-11-15 02:02:00,
2013-11-14 21:12:00,36.0,27.0,30.23,North,0,0.0,-999.0,69,-99.99,,,-99.99,,2013-11-15 02:12:00,
2013-11-14 21:22:00,36.0,27.0,30.23,North,0,0.0,-999.0,69,-99.99,,,-99.99,,2013-11-15 02:22:00,
2013-11-14 21:42:00,36.0,27.0,30.23,North,0,0.0,-999.0,69,-99.99,,,-99.99,,2013-11-15 02:42:00,
2013-11-14 22:22:00,34.0,27.0,30.23,North,0,0.0,-999.0,74,-99.99,,,-99.99,,2013-11-15 03:22:00,
2013-11-14 22:44:00,34.0,27.0,30.22,North,0,0.0,-999.0,74,-99.99,,,-99.99,,2013-11-15 03:44:00,